Time;durP1;ratioP1;P1;durP2;ratioP2;P2;SDS_P1;SDS_P2;PMS_P1;PMS_P2;Temp;Humidity;BMP_temperature;BMP_pressure;BME280_temperature;BME280_humidity;BME280_pressure;Samples;Min_cycle;Max_cycle;Signal;HPM_P1;HPM_P2
2022/05/17 00:00:23;;;;;;;5.75;4.28;;;18.40;99.90;;;;;;4153249;28;20042;-67
2022/05/17 00:02:24;;;;;;;5.78;4.18;;;18.40;99.90;;;;;;4152695;28;20056;-67
2022/05/17 00:04:24;;;;;;;5.47;4.28;;;18.30;99.90;;;;;;4152572;28;20030;-67
2022/05/17 00:06:26;;;;;;;8.05;3.90;;;18.30;99.90;;;;;;4155266;28;20045;-67
2022/05/17 00:08:27;;;;;;;4.87;4.07;;;18.20;99.90;;;;;;4159092;28;20033;-67
2022/05/17 00:10:28;;;;;;;5.28;3.70;;;18.20;99.90;;;;;;4154750;28;20164;-67
2022/05/17 00:12:29;;;;;;;5.85;4.38;;;18.20;99.90;;;;;;4158036;28;20026;-67
2022/05/17 00:14:30;;;;;;;5.82;4.28;;;18.20;99.90;;;;;;4153599;28;20038;-67
2022/05/17 00:16:31;;;;;;;6.05;4.55;;;18.10;99.90;;;;;;4155421;28;20486;-67
2022/05/17 00:18:33;;;;;;;7.25;4.30;;;18.10;99.90;;;;;;4156867;28;20140;-67
2022/05/17 00:20:33;;;;;;;6.55;4.57;;;18.10;99.90;;;;;;4156271;28;20481;-67
2022/05/17 00:22:34;;;;;;;4.85;3.92;;;18.10;99.90;;;;;;4153822;28;20025;-67
2022/05/17 00:24:35;;;;;;;6.85;4.32;;;18.10;99.90;;;;;;4150558;28;20046;-67
2022/05/17 00:26:35;;;;;;;5.70;4.05;;;18.20;99.90;;;;;;4158687;28;20455;-67
2022/05/17 00:28:37;;;;;;;5.45;3.90;;;18.10;99.90;;;;;;4158356;28;20120;-67
2022/05/17 00:30:38;;;;;;;5.22;4.07;;;18.10;99.90;;;;;;4155921;28;20033;-67
2022/05/17 00:32:38;;;;;;;7.07;4.63;;;18.00;99.90;;;;;;4157956;28;20053;-67
2022/05/17 00:34:39;;;;;;;7.72;4.70;;;18.00;99.90;;;;;;4154019;28;20029;-67
2022/05/17 00:36:40;;;;;;;7.45;4.78;;;17.90;99.90;;;;;;4152565;28;20032;-68
2022/05/17 00:38:40;;;;;;;6.10;4.47;;;18.00;99.90;;;;;;4159110;28;20079;-67
2022/05/17 00:40:42;;;;;;;7.68;4.45;;;18.00;99.90;;;;;;4158233;28;20037;-67
2022/05/17 00:42:43;;;;;;;7.25;4.55;;;17.90;99.90;;;;;;4158020;28;20060;-67
2022/05/17 00:44:43;;;;;;;6.00;4.10;;;17.90;99.90;;;;;;4157180;28;20034;-67
2022/05/17 00:46:53;;;;;;;10.02;4.57;;;17.90;99.90;;;;;;4158064;28;20036;-67
2022/05/17 00:48:54;;;;;;;5.75;4.05;;;17.90;99.90;;;;;;4154401;28;20475;-67
2022/05/17 00:50:56;;;;;;;5.65;4.45;;;17.90;99.90;;;;;;4158037;28;20395;-67
2022/05/17 00:53:05;;;;;;;6.80;4.65;;;17.90;99.90;;;;;;4156349;28;20044;-67
2022/05/17 00:55:17;;;;;;;6.22;4.03;;;17.90;99.90;;;;;;4156908;28;20061;-67
2022/05/17 00:57:18;;;;;;;4.23;3.60;;;17.90;99.90;;;;;;4159122;28;20060;-67
2022/05/17 00:59:18;;;;;;;7.43;4.22;;;17.90;99.90;;;;;;4157148;28;20108;-67
2022/05/17 01:01:23;;;;;;;5.93;4.07;;;17.80;99.90;;;;;;4158932;28;20500;-67
2022/05/17 01:03:25;;;;;;;7.32;4.13;;;17.80;99.90;;;;;;4157691;28;20038;-67
2022/05/17 01:05:26;;;;;;;5.93;3.90;;;17.80;99.90;;;;;;4158159;28;20045;-67
2022/05/17 01:07:36;;;;;;;7.32;4.55;;;17.80;99.90;;;;;;4157013;28;20072;-67
2022/05/17 01:09:36;;;;;;;8.35;4.72;;;17.80;99.90;;;;;;4156227;28;20080;-67
2022/05/17 01:11:37;;;;;;;5.05;3.95;;;17.80;99.90;;;;;;4157787;28;20400;-67
2022/05/17 01:15:57;;;;;;;5.80;3.72;;;17.70;99.90;;;;;;4157802;28;20029;-67
2022/05/17 01:17:58;;;;;;;5.65;4.05;;;17.70;99.90;;;;;;4158251;28;20040;-67
2022/05/17 01:19:59;;;;;;;5.85;4.07;;;17.70;99.90;;;;;;4155808;28;20034;-67
2022/05/17 01:21:59;;;;;;;7.20;3.72;;;17.70;99.90;;;;;;4153294;28;20049;-67
2022/05/17 01:24:00;;;;;;;4.68;3.65;;;17.70;99.90;;;;;;4155020;28;20052;-67
2022/05/17 01:26:03;;;;;;;6.03;3.70;;;17.70;99.90;;;;;;4156545;28;24831;-67
2022/05/17 01:28:11;;;;;;;4.63;3.78;;;17.60;99.90;;;;;;4153980;28;20033;-67
2022/05/17 01:30:18;;;;;;;6.05;4.15;;;17.60;99.90;;;;;;4155325;28;21737;-67
2022/05/17 01:32:18;;;;;;;4.65;3.83;;;17.60;99.90;;;;;;4159949;28;20086;-67
2022/05/17 01:34:19;;;;;;;5.43;4.22;;;17.60;99.90;;;;;;4158510;28;20451;-67
2022/05/17 01:36:22;;;;;;;6.60;4.05;;;17.50;99.90;;;;;;4156432;28;20133;-67
2022/05/17 01:38:23;;;;;;;3.45;3.15;;;17.60;99.90;;;;;;4155522;28;20041;-67
2022/05/17 01:40:25;;;;;;;5.35;3.08;;;17.50;99.90;;;;;;4153770;28;20091;-67
2022/05/17 01:42:26;;;;;;;3.83;2.65;;;17.50;99.90;;;;;;4156490;28;20054;-67
2022/05/17 01:44:27;;;;;;;4.63;3.42;;;17.40;99.90;;;;;;4154208;28;20462;-67
2022/05/17 01:46:28;;;;;;;6.05;3.80;;;17.40;99.90;;;;;;4155665;28;20064;-67
2022/05/17 01:48:28;;;;;;;6.38;4.22;;;17.40;99.90;;;;;;4158704;28;20045;-67
2022/05/17 01:50:29;;;;;;;4.20;3.30;;;17.40;99.90;;;;;;4159797;28;20049;-67
2022/05/17 01:52:29;;;;;;;3.58;3.08;;;17.40;99.90;;;;;;4159044;28;20512;-67
2022/05/17 01:54:30;;;;;;;2.95;2.55;;;17.40;99.90;;;;;;4161149;28;20041;-67
2022/05/17 01:56:31;;;;;;;3.95;2.20;;;17.30;99.90;;;;;;4157323;28;20137;-67
2022/05/17 01:58:32;;;;;;;2.63;2.28;;;17.30;99.90;;;;;;4157387;28;20042;-67
2022/05/17 02:00:32;;;;;;;2.35;2.15;;;17.30;99.90;;;;;;4157376;28;20042;-67
2022/05/17 02:02:33;;;;;;;3.58;2.22;;;17.20;99.90;;;;;;4157143;28;20037;-67
2022/05/17 02:04:34;;;;;;;3.85;2.65;;;17.20;99.90;;;;;;4162978;28;20107;-67
2022/05/17 02:06:34;;;;;;;3.50;2.70;;;17.20;99.90;;;;;;4159511;28;20484;-67
2022/05/17 02:08:35;;;;;;;5.40;3.45;;;17.20;99.90;;;;;;4153806;28;20030;-67
2022/05/17 02:10:36;;;;;;;4.18;3.30;;;17.20;99.90;;;;;;4157535;28;20025;-67
2022/05/17 02:12:36;;;;;;;4.88;3.67;;;17.10;99.90;;;;;;4158222;28;20060;-67
2022/05/17 02:14:37;;;;;;;3.85;3.45;;;17.10;99.90;;;;;;4159509;28;20091;-67
2022/05/17 02:16:38;;;;;;;5.20;3.67;;;17.10;99.90;;;;;;4152589;28;20025;-67
2022/05/17 02:18:39;;;;;;;4.60;3.72;;;17.10;99.90;;;;;;4159913;28;20121;-67
2022/05/17 02:20:40;;;;;;;4.95;3.65;;;17.10;99.90;;;;;;4156170;28;20500;-67
2022/05/17 02:22:40;;;;;;;4.68;4.18;;;17.10;99.90;;;;;;4158100;28;20021;-67
2022/05/17 02:24:41;;;;;;;8.18;5.13;;;17.10;99.90;;;;;;4153182;28;20017;-67
2022/05/17 02:26:42;;;;;;;6.72;5.55;;;17.10;99.90;;;;;;4156116;28;20065;-67
2022/05/17 02:28:43;;;;;;;9.75;5.88;;;17.20;99.90;;;;;;4160798;28;20033;-67
2022/05/17 02:30:44;;;;;;;6.65;5.13;;;17.20;99.90;;;;;;4159643;28;20076;-67
2022/05/17 02:32:45;;;;;;;6.00;5.03;;;17.10;99.90;;;;;;4157586;28;20023;-67
2022/05/17 02:34:45;;;;;;;6.88;5.20;;;17.10;99.90;;;;;;4155980;28;20030;-67
2022/05/17 02:36:46;;;;;;;6.97;5.25;;;17.10;99.90;;;;;;4159598;28;20025;-67
2022/05/17 02:38:47;;;;;;;7.95;5.00;;;17.10;99.90;;;;;;4161419;28;20056;-67
2022/05/17 02:40:47;;;;;;;7.57;5.28;;;17.10;99.90;;;;;;4160080;28;20121;-67
2022/05/17 02:42:48;;;;;;;7.80;4.60;;;17.10;99.90;;;;;;4158755;28;20046;-67
2022/05/17 02:44:49;;;;;;;5.70;4.72;;;17.10;99.90;;;;;;4157853;28;20036;-67
2022/05/17 02:46:49;;;;;;;6.30;4.72;;;17.00;99.90;;;;;;4152671;28;20385;-67
2022/05/17 02:48:50;;;;;;;7.80;4.85;;;17.00;99.90;;;;;;4154545;28;20030;-67
2022/05/17 02:50:51;;;;;;;7.50;4.57;;;17.00;99.90;;;;;;4152619;28;20069;-67
2022/05/17 02:52:51;;;;;;;6.55;4.88;;;16.90;99.90;;;;;;4160045;28;20033;-67
2022/05/17 02:54:52;;;;;;;6.65;4.65;;;16.90;99.90;;;;;;4157304;28;20041;-67
2022/05/17 02:56:52;;;;;;;6.80;5.47;;;16.90;99.90;;;;;;4151814;28;20097;-67
2022/05/17 02:58:53;;;;;;;6.57;4.90;;;16.90;99.90;;;;;;4159537;28;20511;-67
2022/05/17 03:00:53;;;;;;;6.70;4.88;;;16.90;99.90;;;;;;4159223;28;20033;-68
2022/05/17 03:02:54;;;;;;;9.02;5.85;;;16.90;99.90;;;;;;4151558;28;20041;-67
2022/05/17 03:04:54;;;;;;;10.32;5.43;;;16.90;99.90;;;;;;4160922;28;20033;-67
2022/05/17 03:06:56;;;;;;;8.38;5.40;;;16.90;99.90;;;;;;4153240;28;20160;-67
2022/05/17 03:08:57;;;;;;;8.05;6.03;;;16.90;99.90;;;;;;4157288;28;20141;-67
2022/05/17 03:10:57;;;;;;;7.40;5.30;;;16.90;99.90;;;;;;4154702;28;20117;-67
2022/05/17 03:12:58;;;;;;;7.20;5.03;;;16.90;99.90;;;;;;4153302;28;20401;-67
2022/05/17 03:15:00;;;;;;;8.65;5.18;;;16.90;99.90;;;;;;4158545;28;20037;-67
2022/05/17 03:17:00;;;;;;;6.15;4.63;;;16.90;99.90;;;;;;4156629;28;20040;-67
2022/05/17 03:19:02;;;;;;;6.35;4.40;;;16.90;99.90;;;;;;4156204;28;20115;-67
2022/05/17 03:21:03;;;;;;;6.70;4.60;;;16.90;99.90;;;;;;4160510;28;20103;-67
2022/05/17 03:23:03;;;;;;;6.15;4.75;;;16.90;99.90;;;;;;4154851;28;20037;-67
2022/05/17 03:25:04;;;;;;;6.05;4.90;;;16.90;99.90;;;;;;4150271;28;20030;-68
2022/05/17 03:27:05;;;;;;;6.85;4.88;;;16.90;99.90;;;;;;4158364;28;20041;-67
2022/05/17 03:29:07;;;;;;;8.00;5.30;;;16.90;99.90;;;;;;4155227;28;20056;-67
2022/05/17 03:31:09;;;;;;;7.30;4.90;;;16.90;99.90;;;;;;4147772;28;20117;-67
2022/05/17 03:33:10;;;;;;;8.27;5.25;;;16.90;99.90;;;;;;4156248;28;20113;-67
2022/05/17 03:35:11;;;;;;;11.77;5.00;;;16.90;99.90;;;;;;4158124;28;20026;-67
2022/05/17 03:37:12;;;;;;;7.22;5.35;;;16.90;99.90;;;;;;4155660;28;20563;-70
2022/05/17 03:39:14;;;;;;;7.05;5.15;;;16.90;99.90;;;;;;4155167;28;20045;-67
2022/05/17 03:41:14;;;;;;;8.73;4.90;;;17.00;99.90;;;;;;4154947;28;20962;-67
2022/05/17 03:43:16;;;;;;;9.68;6.18;;;17.00;99.90;;;;;;4155225;28;20041;-67
2022/05/17 03:45:17;;;;;;;7.07;5.60;;;17.00;99.90;;;;;;4153751;28;20033;-67
2022/05/17 03:47:17;;;;;;;8.73;5.70;;;17.00;99.90;;;;;;4155546;28;20045;-67
2022/05/17 03:49:18;;;;;;;7.22;5.00;;;17.00;99.90;;;;;;4160718;28;20041;-67
2022/05/17 03:51:20;;;;;;;7.22;5.15;;;17.00;99.90;;;;;;4156334;28;20485;-67
2022/05/17 03:53:21;;;;;;;8.77;5.45;;;17.00;99.90;;;;;;4159579;28;20033;-67
2022/05/17 03:55:22;;;;;;;10.27;5.68;;;17.10;99.90;;;;;;4156785;28;20383;-67
2022/05/17 03:57:23;;;;;;;8.20;5.65;;;17.10;99.90;;;;;;4156427;28;20038;-67
2022/05/17 03:59:24;;;;;;;7.13;4.75;;;17.10;99.90;;;;;;4154653;28;20042;-69
2022/05/17 04:01:24;;;;;;;7.32;5.15;;;17.10;99.90;;;;;;4153397;28;20037;-67
2022/05/17 04:03:25;;;;;;;5.80;4.35;;;17.00;99.90;;;;;;4150575;28;20044;-67
2022/05/17 04:05:26;;;;;;;7.22;5.15;;;17.10;99.90;;;;;;4154383;28;20477;-68
2022/05/17 04:07:27;;;;;;;6.85;4.80;;;17.10;99.90;;;;;;4156553;28;20099;-67
2022/05/17 04:09:27;;;;;;;6.78;4.38;;;17.10;99.90;;;;;;4155861;28;20393;-67
2022/05/17 04:11:28;;;;;;;6.55;4.22;;;17.10;99.90;;;;;;4155116;28;20045;-67
2022/05/17 04:13:29;;;;;;;6.20;4.30;;;17.10;99.90;;;;;;4156542;28;20046;-67
2022/05/17 04:15:30;;;;;;;6.15;4.55;;;17.10;99.90;;;;;;4154329;28;20053;-67
2022/05/17 04:17:31;;;;;;;8.35;5.05;;;17.20;99.90;;;;;;4153105;28;20109;-67
2022/05/17 04:19:32;;;;;;;7.28;4.72;;;17.20;99.90;;;;;;4152634;28;20049;-67
2022/05/17 04:21:34;;;;;;;9.75;5.15;;;17.20;99.90;;;;;;4156192;28;20196;-67
2022/05/17 04:23:35;;;;;;;6.18;4.82;;;17.30;99.90;;;;;;4154189;28;20049;-67
2022/05/17 04:25:35;;;;;;;7.32;4.80;;;17.30;99.90;;;;;;4157475;28;20477;-67
2022/05/17 04:27:36;;;;;;;8.23;4.35;;;17.30;99.90;;;;;;4156602;28;20815;-67
2022/05/17 04:29:37;;;;;;;7.28;4.72;;;17.30;99.90;;;;;;4156620;28;20067;-67
2022/05/17 04:31:38;;;;;;;6.67;3.97;;;17.30;99.90;;;;;;4151020;28;20038;-67
2022/05/17 04:33:39;;;;;;;8.35;4.50;;;17.40;99.90;;;;;;4152086;28;20110;-67
2022/05/17 04:35:40;;;;;;;6.15;4.57;;;17.40;99.90;;;;;;4154479;28;20029;-67
2022/05/17 04:37:41;;;;;;;6.18;4.63;;;17.40;99.90;;;;;;4153797;28;20137;-67
2022/05/17 04:39:41;;;;;;;6.68;4.15;;;17.40;99.90;;;;;;4158519;28;20381;-67
2022/05/17 04:41:43;;;;;;;10.63;5.00;;;17.40;99.90;;;;;;4153407;28;20103;-67
2022/05/17 04:43:43;;;;;;;7.07;4.40;;;17.40;99.90;;;;;;4151916;28;20981;-67
2022/05/17 04:45:45;;;;;;;8.02;4.82;;;17.50;99.90;;;;;;4159064;28;20038;-67
2022/05/17 04:47:45;;;;;;;12.20;5.53;;;17.50;99.90;;;;;;4154349;28;20180;-67
2022/05/17 04:49:46;;;;;;;8.57;5.18;;;17.50;99.90;;;;;;4157359;28;20091;-67
2022/05/17 04:51:52;;;;;;;10.82;4.78;;;17.50;99.90;;;;;;4151838;28;20492;-67
2022/05/17 04:53:52;;;;;;;9.40;4.63;;;17.50;99.90;;;;;;4151752;28;20116;-67
2022/05/17 04:55:53;;;;;;;9.10;4.47;;;17.50;99.90;;;;;;4157477;28;20058;-67
2022/05/17 04:57:54;;;;;;;7.50;4.60;;;17.50;99.90;;;;;;4155380;28;20030;-67
2022/05/17 04:59:54;;;;;;;8.05;4.82;;;17.60;99.90;;;;;;4158285;28;20124;-67
2022/05/17 05:01:55;;;;;;;9.23;4.43;;;17.60;99.90;;;;;;4151735;28;20391;-69
2022/05/17 05:03:55;;;;;;;6.03;4.05;;;17.60;99.90;;;;;;4151105;28;20076;-67
2022/05/17 05:05:56;;;;;;;15.63;5.40;;;17.60;99.90;;;;;;4154795;28;20029;-67
2022/05/17 05:07:57;;;;;;;9.20;4.88;;;17.50;99.90;;;;;;4155664;28;20053;-68
2022/05/17 05:09:57;;;;;;;5.82;3.70;;;17.50;99.90;;;;;;4158173;28;20392;-68
2022/05/17 05:11:58;;;;;;;10.55;4.90;;;17.60;99.90;;;;;;4147293;28;20036;-68
2022/05/17 05:13:59;;;;;;;8.25;4.90;;;17.60;99.90;;;;;;4154881;28;20038;-68
2022/05/17 05:15:59;;;;;;;8.75;4.75;;;17.60;99.90;;;;;;4149788;28;20387;-68
2022/05/17 05:18:00;;;;;;;10.98;5.32;;;17.50;99.90;;;;;;4153400;28;20508;-67
2022/05/17 05:20:01;;;;;;;7.53;4.72;;;17.50;99.90;;;;;;4148391;28;20501;-68
2022/05/17 05:22:02;;;;;;;9.65;4.82;;;17.50;99.90;;;;;;4151255;28;20484;-68
2022/05/17 05:24:04;;;;;;;8.57;4.50;;;17.50;99.90;;;;;;4156063;28;20053;-67
2022/05/17 05:26:05;;;;;;;7.50;3.95;;;17.50;99.90;;;;;;4156550;28;20029;-67
2022/05/17 05:28:08;;;;;;;8.25;3.85;;;17.50;99.90;;;;;;4147904;28;20065;-68
2022/05/17 05:30:12;;;;;;;10.23;4.65;;;17.60;99.90;;;;;;4151533;28;20822;-70
2022/05/17 05:32:12;;;;;;;9.23;4.72;;;17.60;99.90;;;;;;4155649;28;20103;-68
2022/05/17 05:34:13;;;;;;;8.52;4.03;;;17.60;99.90;;;;;;4159060;28;20116;-68
2022/05/17 05:36:14;;;;;;;9.73;4.90;;;17.60;99.90;;;;;;4153673;28;20034;-68
2022/05/17 05:38:14;;;;;;;7.10;4.70;;;17.60;99.90;;;;;;4152347;28;20400;-67
2022/05/17 05:40:15;;;;;;;11.68;4.85;;;17.60;99.90;;;;;;4152524;28;20099;-67
2022/05/17 05:42:16;;;;;;;7.75;4.75;;;17.70;99.90;;;;;;4154376;28;20041;-67
2022/05/17 05:44:17;;;;;;;8.07;4.82;;;17.70;99.90;;;;;;4154698;28;20038;-68
2022/05/17 05:46:17;;;;;;;6.95;4.05;;;17.70;99.90;;;;;;4157930;28;20033;-68
2022/05/17 05:48:18;;;;;;;6.65;3.97;;;17.70;99.90;;;;;;4159317;28;20565;-68
2022/05/17 05:50:19;;;;;;;8.15;4.18;;;17.70;99.90;;;;;;4149537;28;20044;-68
2022/05/17 05:52:19;;;;;;;7.43;4.18;;;17.80;99.90;;;;;;4154060;28;20030;-68
2022/05/17 05:54:20;;;;;;;7.32;4.25;;;17.80;99.90;;;;;;4156615;28;20461;-68
2022/05/17 05:56:20;;;;;;;6.75;4.20;;;17.80;99.90;;;;;;4154378;28;20045;-68
2022/05/17 05:58:21;;;;;;;7.50;4.00;;;17.80;99.90;;;;;;4153147;28;20045;-68
2022/05/17 06:00:22;;;;;;;6.65;4.10;;;17.80;99.90;;;;;;4156682;28;20045;-68
2022/05/17 06:02:24;;;;;;;9.10;4.40;;;17.90;99.90;;;;;;4151722;28;20093;-68
2022/05/17 06:04:27;;;;;;;8.93;4.18;;;17.90;99.90;;;;;;4151734;28;20092;-68
2022/05/17 06:06:28;;;;;;;8.43;4.55;;;17.90;99.90;;;;;;4153063;28;20491;-68
2022/05/17 06:08:28;;;;;;;5.43;3.80;;;17.90;99.90;;;;;;4154903;28;20087;-68
2022/05/17 06:10:29;;;;;;;7.25;4.35;;;17.90;99.90;;;;;;4156074;28;20049;-68
2022/05/17 06:12:30;;;;;;;7.43;4.13;;;18.00;99.90;;;;;;4154643;28;20061;-68
2022/05/17 06:14:30;;;;;;;6.78;4.40;;;18.00;99.90;;;;;;4152904;28;20236;-68
2022/05/17 06:16:31;;;;;;;7.85;4.03;;;18.00;99.90;;;;;;4153657;28;20522;-68
2022/05/17 06:18:32;;;;;;;7.13;4.82;;;18.10;99.90;;;;;;4156218;28;20042;-68
2022/05/17 06:20:33;;;;;;;10.40;4.13;;;18.10;99.90;;;;;;4156051;28;20361;-68
2022/05/17 06:22:34;;;;;;;5.97;4.32;;;18.10;99.90;;;;;;4154953;28;20068;-68
2022/05/17 06:24:34;;;;;;;6.88;3.92;;;18.10;99.90;;;;;;4157934;28;20511;-67
2022/05/17 06:26:36;;;;;;;9.48;4.15;;;18.20;99.90;;;;;;4156810;28;20034;-68
2022/05/17 06:28:37;;;;;;;8.27;4.23;;;18.20;99.90;;;;;;4155375;28;20041;-68
2022/05/17 06:30:38;;;;;;;8.32;4.20;;;18.30;99.90;;;;;;4153899;28;20034;-68
2022/05/17 06:32:39;;;;;;;7.10;4.32;;;18.30;99.90;;;;;;4155932;28;20043;-70
2022/05/17 06:34:41;;;;;;;8.60;4.43;;;18.40;99.90;;;;;;4152254;28;20046;-70
2022/05/17 06:36:41;;;;;;;7.35;4.57;;;18.50;99.90;;;;;;4154703;28;20040;-70
2022/05/17 06:38:42;;;;;;;11.15;4.68;;;18.60;99.90;;;;;;4159206;28;20037;-70
2022/05/17 06:40:43;;;;;;;10.23;4.45;;;18.70;99.90;;;;;;4157474;28;20497;-70
2022/05/17 06:42:43;;;;;;;6.85;4.18;;;18.80;99.90;;;;;;4149668;28;20041;-71
2022/05/17 06:44:44;;;;;;;10.82;4.40;;;18.80;99.90;;;;;;4156577;28;20046;-70
2022/05/17 06:46:44;;;;;;;7.45;3.83;;;18.80;99.90;;;;;;4155237;28;20046;-71
2022/05/17 06:48:45;;;;;;;6.57;3.97;;;18.80;99.90;;;;;;4157536;28;20053;-71
2022/05/17 06:50:46;;;;;;;10.27;3.75;;;18.90;99.90;;;;;;4152929;28;20032;-70
2022/05/17 06:52:47;;;;;;;8.18;3.85;;;18.90;99.90;;;;;;4158614;28;20120;-70
2022/05/17 06:54:49;;;;;;;5.97;3.42;;;19.00;99.90;;;;;;4155050;28;20081;-71
2022/05/17 06:56:49;;;;;;;8.38;3.80;;;19.00;99.90;;;;;;4159081;28;20037;-70
2022/05/17 06:58:50;;;;;;;7.10;3.35;;;19.00;99.90;;;;;;4157889;28;20441;-70
2022/05/17 07:00:51;;;;;;;8.82;4.38;;;19.00;99.90;;;;;;4155376;28;20087;-70
2022/05/17 07:02:51;;;;;;;12.45;4.50;;;19.10;99.90;;;;;;4156797;28;20022;-70
2022/05/17 07:04:52;;;;;;;8.07;3.85;;;19.10;99.90;;;;;;4152383;28;20482;-70
2022/05/17 07:06:57;;;;;;;8.68;4.47;;;19.10;99.90;;;;;;4158235;28;20369;-70
2022/05/17 07:08:58;;;;;;;12.88;4.00;;;19.10;99.90;;;;;;4157992;28;20043;-70
2022/05/17 07:13:18;;;;;;;6.75;4.00;;;19.20;99.90;;;;;;4158479;28;20080;-70
2022/05/17 07:15:18;;;;;;;9.48;3.83;;;19.20;99.90;;;;;;4155094;28;20095;-70
2022/05/17 07:17:21;;;;;;;9.27;4.30;;;19.30;99.90;;;;;;4156896;28;20037;-71
2022/05/17 07:19:22;;;;;;;;;;;19.30;99.90;;;;;;4159249;28;20072;-70
2022/05/17 07:21:23;;;;;;;6.88;3.20;;;19.30;99.90;;;;;;4158879;28;19909;-70
2022/05/17 07:23:24;;;;;;;6.03;3.22;;;19.40;99.90;;;;;;4155139;28;20053;-70
2022/05/17 07:25:25;;;;;;;7.88;3.65;;;19.40;99.90;;;;;;4158960;28;20396;-70
2022/05/17 07:27:26;;;;;;;9.70;4.10;;;19.40;99.90;;;;;;4155854;28;20048;-70
2022/05/17 07:29:27;;;;;;;9.02;4.03;;;19.40;99.90;;;;;;4158244;28;20480;-70
2022/05/17 07:31:28;;;;;;;11.32;4.13;;;19.50;99.90;;;;;;4157898;28;20036;-70
2022/05/17 07:33:28;;;;;;;8.07;3.85;;;19.50;99.90;;;;;;4155594;28;20046;-71
2022/05/17 07:35:29;;;;;;;9.75;3.92;;;19.60;99.90;;;;;;4154981;28;20068;-71
2022/05/17 07:37:29;;;;;;;6.40;3.38;;;19.60;99.90;;;;;;4156269;28;20041;-71
2022/05/17 07:39:30;;;;;;;7.60;3.63;;;19.70;99.90;;;;;;4157926;28;20037;-71
2022/05/17 07:41:31;;;;;;;8.38;3.42;;;19.80;99.90;;;;;;4157516;28;20038;-71
2022/05/17 07:43:32;;;;;;;10.25;3.65;;;19.90;99.90;;;;;;4155351;28;20428;-71
2022/05/17 07:45:33;;;;;;;9.65;3.70;;;20.00;99.90;;;;;;4150482;28;20041;-71
2022/05/17 07:47:33;;;;;;;8.25;4.07;;;20.00;99.90;;;;;;4159835;28;20046;-70
2022/05/17 07:49:35;;;;;;;5.40;3.20;;;20.10;99.90;;;;;;4153464;28;20030;-70
2022/05/17 07:51:35;;;;;;;5.20;3.22;;;20.10;99.90;;;;;;4158777;28;20397;-70
2022/05/17 07:53:36;;;;;;;4.97;3.10;;;20.20;99.90;;;;;;4154940;28;20041;-71
2022/05/17 07:55:38;;;;;;;8.50;2.95;;;20.20;99.90;;;;;;4152087;28;20030;-70
2022/05/17 07:57:39;;;;;;;6.47;3.15;;;20.30;99.90;;;;;;4157783;28;20039;-70
2022/05/17 07:59:39;;;;;;;7.55;3.42;;;20.40;99.90;;;;;;4152216;28;20080;-70
2022/05/17 08:01:40;;;;;;;7.45;3.60;;;20.40;99.90;;;;;;4150979;28;20041;-71
2022/05/17 08:03:41;;;;;;;7.82;3.17;;;20.50;99.90;;;;;;4157668;28;20034;-70
2022/05/17 08:05:43;;;;;;;6.15;3.25;;;20.50;99.90;;;;;;4153605;28;20029;-70
2022/05/17 08:07:43;;;;;;;6.70;3.13;;;20.60;99.90;;;;;;4159302;28;20040;-72
2022/05/17 08:09:44;;;;;;;9.07;3.20;;;20.60;99.90;;;;;;4150481;28;20030;-71
2022/05/17 08:11:45;;;;;;;7.35;3.05;;;20.70;99.90;;;;;;4156203;28;20037;-71
2022/05/17 08:13:46;;;;;;;8.07;3.20;;;20.70;99.90;;;;;;4157409;28;20072;-70
2022/05/17 08:15:48;;;;;;;7.30;2.85;;;20.80;99.90;;;;;;4156874;28;20033;-71
2022/05/17 08:17:53;;;;;;;;;;;20.80;99.90;;;;;;4153893;28;20030;-70
2022/05/17 08:19:53;;;;;;;6.45;2.60;;;20.90;99.90;;;;;;4159496;28;19916;-69
2022/05/17 08:21:54;;;;;;;11.23;3.55;;;21.00;99.90;;;;;;4158013;28;20044;-70
2022/05/17 08:23:55;;;;;;;10.43;3.17;;;21.00;99.90;;;;;;4154679;28;20064;-70
2022/05/17 08:28:15;;;;;;;6.53;3.00;;;21.10;99.90;;;;;;4158619;28;20124;-70
2022/05/17 08:30:19;;;;;;;4.43;2.15;;;21.10;99.90;;;;;;4158242;28;20029;-70
2022/05/17 08:34:39;;;;;;;10.10;2.75;;;21.20;99.90;;;;;;4153898;28;20058;-70
2022/05/17 08:36:39;;;;;;;6.53;2.40;;;21.20;99.90;;;;;;4153515;28;20044;-70
2022/05/17 08:38:41;;;;;;;6.30;2.30;;;21.20;99.90;;;;;;4159298;28;20164;-70
2022/05/17 08:40:57;;;;;;;3.17;1.63;;;21.20;99.90;;;;;;4155512;28;20033;-70
2022/05/17 08:43:07;;;;;;;3.33;1.92;;;21.30;99.90;;;;;;4152651;28;20142;-72
2022/05/17 08:45:14;;;;;;;4.70;2.22;;;21.30;99.90;;;;;;4156822;28;20021;-71
2022/05/17 08:47:26;;;;;;;10.70;2.58;;;21.30;99.90;;;;;;4151124;28;20291;-70
2022/05/17 08:49:31;;;;;;;7.65;2.42;;;21.30;99.90;;;;;;4158547;28;20049;-70
2022/05/17 08:51:50;;;;;;;5.03;2.47;;;21.30;99.90;;;;;;4150922;28;20042;-71
2022/05/17 08:53:51;;;;;;;4.38;2.10;;;21.30;99.90;;;;;;4159758;28;20032;-69
2022/05/17 08:55:52;;;;;;;6.72;2.47;;;21.30;99.90;;;;;;4153211;28;20480;-70
2022/05/17 08:58:01;;;;;;;9.23;2.70;;;21.30;99.90;;;;;;4157939;28;20520;-70
2022/05/17 09:00:12;;;;;;;15.63;2.53;;;21.30;99.90;;;;;;4155647;28;20033;-71
2022/05/17 09:02:41;;;;;;;5.10;2.47;;;21.20;99.90;;;;;;4154514;28;20504;-70
2022/05/17 09:04:59;;;;;;;4.10;1.50;;;21.30;99.90;;;;;;4155201;28;20037;-70
2022/05/17 09:07:18;;;;;;;5.22;2.30;;;21.30;99.90;;;;;;4156166;28;20540;-71
2022/05/17 09:09:26;;;;;;;5.30;2.10;;;21.30;99.90;;;;;;4157186;28;20041;-71
2022/05/17 09:11:43;;;;;;;5.15;2.40;;;21.30;99.90;;;;;;4154998;28;20041;-70
2022/05/17 09:14:01;;;;;;;7.38;2.83;;;21.30;99.90;;;;;;4155056;28;20052;-70
2022/05/17 09:16:02;;;;;;;4.47;2.53;;;21.30;99.90;;;;;;4156848;28;20033;-70
2022/05/17 09:18:13;;;;;;;6.05;2.97;;;21.30;99.90;;;;;;4155423;28;20554;-70
2022/05/17 09:20:18;;;;;;;5.30;2.65;;;21.20;99.90;;;;;;4155729;28;20034;-70
2022/05/17 09:22:20;;;;;;;6.13;3.00;;;21.20;99.90;;;;;;4158617;28;20037;-71
2022/05/17 09:24:22;;;;;;;6.35;2.20;;;21.20;99.90;;;;;;4156242;28;20493;-71
2022/05/17 09:26:24;;;;;;;5.20;2.72;;;21.20;99.90;;;;;;4154586;28;20037;-70
2022/05/17 09:28:28;;;;;;;9.02;2.70;;;21.20;99.90;;;;;;4157336;28;20045;-70
2022/05/17 09:30:35;;;;;;;8.00;2.63;;;21.20;99.90;;;;;;4153378;28;20516;-72
2022/05/17 09:32:44;;;;;;;7.43;2.88;;;21.20;99.90;;;;;;4157313;28;20400;-71
2022/05/17 09:34:45;;;;;;;7.70;2.80;;;21.20;99.90;;;;;;4157921;28;20025;-72
2022/05/17 09:36:52;;;;;;;9.00;2.80;;;21.20;99.90;;;;;;4157147;28;20048;-71
2022/05/17 09:38:54;;;;;;;10.35;2.72;;;21.20;99.90;;;;;;4157405;28;20153;-71
2022/05/17 09:40:56;;;;;;;8.27;3.20;;;21.20;99.90;;;;;;4156302;28;20036;-71
2022/05/17 09:42:57;;;;;;;5.75;2.50;;;21.20;99.90;;;;;;4158986;28;20068;-69
2022/05/17 09:45:02;;;;;;;6.65;2.50;;;21.10;99.90;;;;;;4156998;28;20489;-70
2022/05/17 09:47:06;;;;;;;5.18;2.55;;;21.10;99.90;;;;;;4156999;28;20045;-71
2022/05/17 09:54:09;;;;;;;10.27;4.05;;;21.10;99.90;;;;;;4155800;28;20023;-71
2022/05/17 09:56:11;;;;;;;7.72;3.38;;;21.00;99.90;;;;;;4156852;28;20037;-71
2022/05/17 09:58:27;;;;;;;7.07;3.37;;;21.00;99.90;;;;;;4157083;28;20073;-70
2022/05/17 10:00:34;;;;;;;5.93;3.13;;;21.00;99.90;;;;;;4154571;28;20044;-71
2022/05/17 10:02:42;;;;;;;8.73;3.70;;;21.00;99.90;;;;;;4152972;28;20034;-71
2022/05/17 10:04:42;;;;;;;7.75;3.30;;;21.00;99.90;;;;;;4158550;28;20033;-70
2022/05/17 10:06:46;;;;;;;8.63;3.10;;;21.10;99.90;;;;;;4156372;28;20484;-71
2022/05/17 10:09:05;;;;;;;7.28;3.22;;;21.10;99.90;;;;;;4157084;28;20495;-71
2022/05/17 10:11:16;;;;;;;10.05;3.83;;;21.10;99.90;;;;;;4160346;28;20483;-71
2022/05/17 10:13:41;;;;;;;6.63;3.95;;;21.10;99.90;;;;;;4159193;28;20531;-71
2022/05/17 10:15:46;;;;;;;7.97;3.95;;;21.00;99.90;;;;;;4158895;28;20037;-70
2022/05/17 10:17:59;;;;;;;13.13;4.85;;;21.10;99.90;;;;;;4159466;28;20029;-71
2022/05/17 10:20:07;;;;;;;9.52;4.22;;;21.10;99.90;;;;;;4153842;28;20053;-71
2022/05/17 10:22:29;;;;;;;8.88;3.50;;;21.10;99.90;;;;;;4160954;28;20030;-71
2022/05/17 10:24:45;;;;;;;7.43;3.33;;;21.10;99.90;;;;;;4159619;28;20077;-72
2022/05/17 10:26:52;;;;;;;8.95;4.07;;;21.10;99.90;;;;;;4158628;28;20034;-72
2022/05/17 10:29:01;;;;;;;7.50;3.60;;;21.10;99.90;;;;;;4160679;28;20026;-71
2022/05/17 10:31:18;;;;;;;10.45;3.90;;;21.20;99.90;;;;;;4158143;28;20397;-72
2022/05/17 10:33:35;;;;;;;10.32;3.60;;;21.10;99.90;;;;;;4155839;28;20046;-72
2022/05/17 10:35:44;;;;;;;12.05;3.88;;;21.10;99.90;;;;;;4159707;28;20080;-72
2022/05/17 10:37:53;;;;;;;7.25;3.15;;;21.10;99.90;;;;;;4159526;28;20022;-73
2022/05/17 10:40:03;;;;;;;10.57;3.25;;;21.10;99.90;;;;;;4160837;28;20026;-71
2022/05/17 10:42:04;;;;;;;6.18;3.05;;;21.10;99.90;;;;;;4158441;28;20037;-71
2022/05/17 10:44:05;;;;;;;6.50;2.42;;;21.10;99.90;;;;;;4154814;28;20639;-72
2022/05/17 10:46:06;;;;;;;8.93;3.63;;;21.20;99.90;;;;;;4158096;28;20087;-71
2022/05/17 10:48:19;;;;;;;8.02;3.40;;;21.10;99.90;;;;;;4158697;28;20026;-71
2022/05/17 10:50:45;;;;;;;;;;;21.10;99.90;;;;;;4154785;28;21677;-71